BAW59E EGKK-EGJJ
Flight info
| Callsign | BAW59E |
|---|---|
| Flight time | N/A |
| Altitude | 22000 |
| Route | NOVMA1X NOVMA L620 SAM N63 LELNA LELNA1K |
| Aircraft | A320/M-SDE3FGHIRWY/LB1 |
Departure
| Time | 2026-04-14 14:46 |
|---|---|
| Airport | London Gatwick Airport (EGKK) |
Arrival
| Time | N/A |
|---|---|
| Airport | Jersey Airport (EGJJ) |
| Time | Latitude | Longitude | Altitude | Speed | Heading |
|---|---|---|---|---|---|
| 2026-04-14 14:19 | 51.15521 | -0.16650 | 208 ft | 0 kts | 348° |
| 2026-04-14 14:38 | 51.15513 | -0.16647 | 214 ft | 2 kts | 348° |
| 2026-04-14 14:38 | 51.15497 | -0.16642 | 212 ft | 2 kts | 348° |
| 2026-04-14 14:39 | 51.15480 | -0.16636 | 212 ft | 2 kts | 348° |
| 2026-04-14 14:39 | 51.15466 | -0.16623 | 213 ft | 2 kts | 276° |
| 2026-04-14 14:39 | 51.15465 | -0.16617 | 213 ft | 0 kts | 262° |
| 2026-04-14 14:42 | 51.15465 | -0.16619 | 213 ft | 1 kts | 261° |
| 2026-04-14 14:42 | 51.15456 | -0.16652 | 212 ft | 5 kts | 245° |
| 2026-04-14 14:42 | 51.15426 | -0.16716 | 209 ft | 8 kts | 203° |
| 2026-04-14 14:43 | 51.15365 | -0.16694 | 207 ft | 10 kts | 169° |
| 2026-04-14 14:43 | 51.15286 | -0.16665 | 210 ft | 13 kts | 164° |
| 2026-04-14 14:43 | 51.15252 | -0.16651 | 201 ft | 0 kts | 167° |
| 2026-04-14 14:44 | 51.15243 | -0.16648 | 211 ft | 3 kts | 167° |
| 2026-04-14 14:45 | 51.15195 | -0.16631 | 200 ft | 11 kts | 168° |
| 2026-04-14 14:45 | 51.15133 | -0.16688 | 199 ft | 13 kts | 248° |
| 2026-04-14 14:45 | 51.15110 | -0.16853 | 202 ft | 24 kts | 257° |
| 2026-04-14 14:45 | 51.15021 | -0.17483 | 207 ft | 89 kts | 258° |
| 2026-04-14 14:46 | 51.14847 | -0.18726 | 203 ft | 139 kts | 256° |
| 2026-04-14 14:46 | 51.14624 | -0.20431 | 320 ft | 170 kts | 256° |
| 2026-04-14 14:46 | 51.14370 | -0.22326 | 795 ft | 183 kts | 253° |
| 2026-04-14 14:46 | 51.14074 | -0.24427 | 1213 ft | 206 kts | 250° |
| 2026-04-14 14:47 | 51.13738 | -0.26775 | 1620 ft | 230 kts | 252° |
| 2026-04-14 14:47 | 51.13374 | -0.29325 | 2157 ft | 247 kts | 253° |
| 2026-04-14 14:47 | 51.13000 | -0.32020 | 3139 ft | 250 kts | 253° |
| 2026-04-14 14:47 | 51.12624 | -0.34757 | 4145 ft | 251 kts | 253° |
| 2026-04-14 14:48 | 51.12254 | -0.37453 | 5073 ft | 253 kts | 254° |
| 2026-04-14 14:48 | 51.11877 | -0.40193 | 6007 ft | 255 kts | 254° |
| 2026-04-14 14:48 | 51.11458 | -0.42934 | 6903 ft | 255 kts | 248° |
| 2026-04-14 14:48 | 51.10706 | -0.45498 | 7708 ft | 257 kts | 242° |
| 2026-04-14 14:49 | 51.09906 | -0.48067 | 8512 ft | 261 kts | 241° |
| 2026-04-14 14:49 | 51.09092 | -0.50667 | 9305 ft | 265 kts | 241° |
| 2026-04-14 14:49 | 51.08263 | -0.53308 | 10045 ft | 271 kts | 241° |
| 2026-04-14 14:49 | 51.07420 | -0.55999 | 10730 ft | 274 kts | 242° |
| 2026-04-14 14:50 | 51.06565 | -0.58733 | 11412 ft | 278 kts | 243° |
| 2026-04-14 14:50 | 51.05710 | -0.61494 | 12174 ft | 279 kts | 246° |
| 2026-04-14 14:50 | 51.05122 | -0.64444 | 12877 ft | 282 kts | 258° |
| 2026-04-14 14:50 | 51.04720 | -0.67492 | 13642 ft | 283 kts | 258° |
| 2026-04-14 14:51 | 51.04308 | -0.70575 | 14274 ft | 287 kts | 258° |
| 2026-04-14 14:51 | 51.03888 | -0.73698 | 14885 ft | 290 kts | 258° |
| 2026-04-14 14:51 | 51.03461 | -0.76857 | 15342 ft | 300 kts | 258° |
| 2026-04-14 14:51 | 51.03010 | -0.80208 | 15473 ft | 320 kts | 258° |
| 2026-04-14 14:52 | 51.02526 | -0.83777 | 15659 ft | 337 kts | 258° |
| 2026-04-14 14:52 | 51.02031 | -0.87412 | 16116 ft | 344 kts | 258° |
| 2026-04-14 14:52 | 51.01518 | -0.91198 | 16636 ft | 349 kts | 258° |
| 2026-04-14 14:52 | 51.01011 | -0.94941 | 17139 ft | 354 kts | 258° |
| 2026-04-14 14:53 | 51.00488 | -0.98780 | 17725 ft | 357 kts | 259° |
| 2026-04-14 14:53 | 50.99959 | -1.02648 | 18047 ft | 359 kts | 259° |
| 2026-04-14 14:53 | 50.99429 | -1.06515 | 18110 ft | 359 kts | 259° |
| 2026-04-14 14:53 | 50.98897 | -1.10392 | 18113 ft | 359 kts | 259° |
| 2026-04-14 14:54 | 50.98359 | -1.14264 | 18112 ft | 360 kts | 259° |
| 2026-04-14 14:54 | 50.97816 | -1.18139 | 18112 ft | 359 kts | 258° |
| 2026-04-14 14:54 | 50.97272 | -1.22011 | 18111 ft | 359 kts | 258° |
| 2026-04-14 14:54 | 50.96729 | -1.25879 | 18111 ft | 359 kts | 258° |
| 2026-04-14 14:55 | 50.95979 | -1.29662 | 18112 ft | 361 kts | 248° |
| 2026-04-14 14:55 | 50.94710 | -1.33119 | 18112 ft | 364 kts | 235° |
| 2026-04-14 14:55 | 50.92970 | -1.36041 | 18111 ft | 368 kts | 222° |
| 2026-04-14 14:55 | 50.90823 | -1.38286 | 18111 ft | 372 kts | 210° |
| 2026-04-14 14:56 | 50.86185 | -1.41964 | 18102 ft | 374 kts | 211° |